METAR Data
IDs: Format: Raw Decoded Include TAF

Data at: 2114 UTC 01 Dec 2021

LERI 011800Z 24004KT CAVOK 11/07 Q1015 NOSIG